sensor_id;sensor_type;location;lat;lon;timestamp;temperature;humidity
65707;SHT31;52423;43.512;5.220;2023-06-19T00:01:47;21.98;66.85
65707;SHT31;52423;43.512;5.220;2023-06-19T00:04:13;22.01;66.53
65707;SHT31;52423;43.512;5.220;2023-06-19T00:06:38;22.03;66.25
65707;SHT31;52423;43.512;5.220;2023-06-19T00:09:04;22.08;65.93
65707;SHT31;52423;43.512;5.220;2023-06-19T00:11:30;22.14;65.85
65707;SHT31;52423;43.512;5.220;2023-06-19T00:13:55;22.05;65.71
65707;SHT31;52423;43.512;5.220;2023-06-19T00:16:21;22.13;65.59
65707;SHT31;52423;43.512;5.220;2023-06-19T00:18:46;22.08;65.76
65707;SHT31;52423;43.512;5.220;2023-06-19T00:21:12;22.07;65.46
65707;SHT31;52423;43.512;5.220;2023-06-19T00:23:37;22.05;65.68
65707;SHT31;52423;43.512;5.220;2023-06-19T00:26:03;22.07;65.84
65707;SHT31;52423;43.512;5.220;2023-06-19T00:28:30;22.03;65.57
65707;SHT31;52423;43.512;5.220;2023-06-19T00:30:55;22.00;65.70
65707;SHT31;52423;43.512;5.220;2023-06-19T00:33:21;21.96;65.66
65707;SHT31;52423;43.512;5.220;2023-06-19T00:35:47;21.94;65.71
65707;SHT31;52423;43.512;5.220;2023-06-19T00:38:13;21.94;65.85
65707;SHT31;52423;43.512;5.220;2023-06-19T00:40:38;21.93;65.68
65707;SHT31;52423;43.512;5.220;2023-06-19T00:43:05;21.94;65.35
65707;SHT31;52423;43.512;5.220;2023-06-19T00:45:30;21.92;65.44
65707;SHT31;52423;43.512;5.220;2023-06-19T00:47:58;21.97;65.31
65707;SHT31;52423;43.512;5.220;2023-06-19T00:50:24;21.97;65.14
65707;SHT31;52423;43.512;5.220;2023-06-19T00:52:50;21.93;65.99
65707;SHT31;52423;43.512;5.220;2023-06-19T00:55:16;21.93;65.24
65707;SHT31;52423;43.512;5.220;2023-06-19T00:57:42;21.93;65.97
65707;SHT31;52423;43.512;5.220;2023-06-19T01:00:09;22.01;65.54
65707;SHT31;52423;43.512;5.220;2023-06-19T01:02:37;22.03;64.76
65707;SHT31;52423;43.512;5.220;2023-06-19T01:05:03;22.04;65.01
65707;SHT31;52423;43.512;5.220;2023-06-19T01:07:31;22.07;65.11
65707;SHT31;52423;43.512;5.220;2023-06-19T01:10:02;22.08;65.11
65707;SHT31;52423;43.512;5.220;2023-06-19T01:12:37;22.03;65.33
65707;SHT31;52423;43.512;5.220;2023-06-19T01:15:04;21.97;65.58
65707;SHT31;52423;43.512;5.220;2023-06-19T01:17:30;21.97;65.88
65707;SHT31;52423;43.512;5.220;2023-06-19T01:19:56;21.87;65.87
65707;SHT31;52423;43.512;5.220;2023-06-19T01:22:31;21.82;66.25
65707;SHT31;52423;43.512;5.220;2023-06-19T01:24:57;21.74;66.50
65707;SHT31;52423;43.512;5.220;2023-06-19T01:27:24;21.67;66.85
65707;SHT31;52423;43.512;5.220;2023-06-19T01:30:01;21.60;67.18
65707;SHT31;52423;43.512;5.220;2023-06-19T01:35:15;21.60;67.88
65707;SHT31;52423;43.512;5.220;2023-06-19T01:37:43;21.73;68.02
65707;SHT31;52423;43.512;5.220;2023-06-19T01:40:09;21.84;67.79
65707;SHT31;52423;43.512;5.220;2023-06-19T01:42:37;21.86;67.79
65707;SHT31;52423;43.512;5.220;2023-06-19T01:45:05;21.87;67.68
65707;SHT31;52423;43.512;5.220;2023-06-19T01:47:31;21.87;67.91
65707;SHT31;52423;43.512;5.220;2023-06-19T01:49:57;21.87;68.26
65707;SHT31;52423;43.512;5.220;2023-06-19T01:52:24;21.73;68.50
65707;SHT31;52423;43.512;5.220;2023-06-19T01:54:50;21.66;68.90
65707;SHT31;52423;43.512;5.220;2023-06-19T01:57:16;21.50;69.44
65707;SHT31;52423;43.512;5.220;2023-06-19T01:59:41;21.55;69.49
65707;SHT31;52423;43.512;5.220;2023-06-19T02:02:07;21.60;69.67
65707;SHT31;52423;43.512;5.220;2023-06-19T02:04:32;21.59;69.67
65707;SHT31;52423;43.512;5.220;2023-06-19T02:06:58;21.56;69.76
65707;SHT31;52423;43.512;5.220;2023-06-19T02:09:24;21.59;69.78
65707;SHT31;52423;43.512;5.220;2023-06-19T02:11:49;21.55;70.12
65707;SHT31;52423;43.512;5.220;2023-06-19T02:14:15;21.59;70.22
65707;SHT31;52423;43.512;5.220;2023-06-19T02:16:40;21.55;70.71
65707;SHT31;52423;43.512;5.220;2023-06-19T02:19:10;21.56;70.62
65707;SHT31;52423;43.512;5.220;2023-06-19T02:21:36;21.52;70.70
65707;SHT31;52423;43.512;5.220;2023-06-19T02:24:01;21.41;71.05
65707;SHT31;52423;43.512;5.220;2023-06-19T02:26:27;21.38;71.55
65707;SHT31;52423;43.512;5.220;2023-06-19T02:28:55;21.35;72.05
65707;SHT31;52423;43.512;5.220;2023-06-19T02:31:23;21.38;72.31
65707;SHT31;52423;43.512;5.220;2023-06-19T02:33:49;21.46;72.25
65707;SHT31;52423;43.512;5.220;2023-06-19T02:36:15;21.46;72.31
65707;SHT31;52423;43.512;5.220;2023-06-19T02:38:50;21.42;71.96
65707;SHT31;52423;43.512;5.220;2023-06-19T02:41:16;21.35;72.01
65707;SHT31;52423;43.512;5.220;2023-06-19T02:43:42;21.25;72.69
65707;SHT31;52423;43.512;5.220;2023-06-19T02:46:08;21.26;73.12
65707;SHT31;52423;43.512;5.220;2023-06-19T02:48:34;21.26;73.41
65707;SHT31;52423;43.512;5.220;2023-06-19T02:51:00;21.21;73.96
65707;SHT31;52423;43.512;5.220;2023-06-19T02:53:25;21.22;74.23
65707;SHT31;52423;43.512;5.220;2023-06-19T02:55:51;21.18;74.88
65707;SHT31;52423;43.512;5.220;2023-06-19T02:58:16;21.19;75.12
65707;SHT31;52423;43.512;5.220;2023-06-19T03:00:42;21.21;75.17
65707;SHT31;52423;43.512;5.220;2023-06-19T03:03:07;21.22;75.24
65707;SHT31;52423;43.512;5.220;2023-06-19T03:05:33;21.26;75.15
65707;SHT31;52423;43.512;5.220;2023-06-19T03:07:58;21.29;74.95
65707;SHT31;52423;43.512;5.220;2023-06-19T03:10:23;21.35;74.67
65707;SHT31;52423;43.512;5.220;2023-06-19T03:12:49;21.33;74.38
65707;SHT31;52423;43.512;5.220;2023-06-19T03:15:14;21.45;74.07
65707;SHT31;52423;43.512;5.220;2023-06-19T03:17:40;21.35;74.22
65707;SHT31;52423;43.512;5.220;2023-06-19T03:20:05;21.29;74.45
65707;SHT31;52423;43.512;5.220;2023-06-19T03:22:31;21.35;74.47
65707;SHT31;52423;43.512;5.220;2023-06-19T03:24:57;21.32;74.66
65707;SHT31;52423;43.512;5.220;2023-06-19T03:27:22;21.29;74.96
65707;SHT31;52423;43.512;5.220;2023-06-19T03:29:52;21.21;74.85
65707;SHT31;52423;43.512;5.220;2023-06-19T03:32:18;21.33;74.28
65707;SHT31;52423;43.512;5.220;2023-06-19T03:34:44;21.28;74.88
65707;SHT31;52423;43.512;5.220;2023-06-19T03:37:09;21.32;74.90
65707;SHT31;52423;43.512;5.220;2023-06-19T03:39:35;21.43;74.84
65707;SHT31;52423;43.512;5.220;2023-06-19T03:42:00;21.46;74.92
65707;SHT31;52423;43.512;5.220;2023-06-19T03:44:25;21.38;74.75
65707;SHT31;52423;43.512;5.220;2023-06-19T03:46:51;21.19;75.20
65707;SHT31;52423;43.512;5.220;2023-06-19T03:49:16;21.24;75.52
65707;SHT31;52423;43.512;5.220;2023-06-19T03:51:42;21.31;75.23
65707;SHT31;52423;43.512;5.220;2023-06-19T03:54:08;21.38;75.06
65707;SHT31;52423;43.512;5.220;2023-06-19T03:56:33;21.43;75.09
65707;SHT31;52423;43.512;5.220;2023-06-19T03:58:59;21.53;74.80
65707;SHT31;52423;43.512;5.220;2023-06-19T04:01:24;21.49;74.76
65707;SHT31;52423;43.512;5.220;2023-06-19T04:03:50;21.52;74.61
65707;SHT31;52423;43.512;5.220;2023-06-19T04:06:15;21.50;74.73
65707;SHT31;52423;43.512;5.220;2023-06-19T04:08:40;21.46;74.78
65707;SHT31;52423;43.512;5.220;2023-06-19T04:11:06;21.32;75.23
65707;SHT31;52423;43.512;5.220;2023-06-19T04:13:31;21.32;75.09
65707;SHT31;52423;43.512;5.220;2023-06-19T04:15:57;21.35;74.89
65707;SHT31;52423;43.512;5.220;2023-06-19T04:18:22;21.41;74.71
65707;SHT31;52423;43.512;5.220;2023-06-19T04:20:48;21.38;74.93
65707;SHT31;52423;43.512;5.220;2023-06-19T04:23:13;21.36;75.15
65707;SHT31;52423;43.512;5.220;2023-06-19T04:25:39;21.26;75.38
65707;SHT31;52423;43.512;5.220;2023-06-19T04:28:04;21.16;75.77
65707;SHT31;52423;43.512;5.220;2023-06-19T04:30:30;21.12;76.13
65707;SHT31;52423;43.512;5.220;2023-06-19T04:32:57;21.08;76.30
65707;SHT31;52423;43.512;5.220;2023-06-19T04:35:23;21.14;76.27
65707;SHT31;52423;43.512;5.220;2023-06-19T04:37:49;21.18;75.97
65707;SHT31;52423;43.512;5.220;2023-06-19T04:40:14;21.28;75.95
65707;SHT31;52423;43.512;5.220;2023-06-19T04:42:40;21.36;76.48
65707;SHT31;52423;43.512;5.220;2023-06-19T04:45:06;21.59;75.89
65707;SHT31;52423;43.512;5.220;2023-06-19T04:47:33;21.70;75.80
65707;SHT31;52423;43.512;5.220;2023-06-19T04:49:59;21.76;75.70
65707;SHT31;52423;43.512;5.220;2023-06-19T04:52:25;21.82;75.61
65707;SHT31;52423;43.512;5.220;2023-06-19T04:54:50;21.82;75.75
65707;SHT31;52423;43.512;5.220;2023-06-19T04:57:16;21.87;75.43
65707;SHT31;52423;43.512;5.220;2023-06-19T04:59:44;21.83;75.34
65707;SHT31;52423;43.512;5.220;2023-06-19T05:02:10;21.84;75.34
65707;SHT31;52423;43.512;5.220;2023-06-19T05:04:36;21.80;75.49
65707;SHT31;52423;43.512;5.220;2023-06-19T05:07:02;21.82;75.55
65707;SHT31;52423;43.512;5.220;2023-06-19T05:09:28;21.80;75.67
65707;SHT31;52423;43.512;5.220;2023-06-19T05:11:53;21.87;75.74
65707;SHT31;52423;43.512;5.220;2023-06-19T05:14:19;21.87;75.65
65707;SHT31;52423;43.512;5.220;2023-06-19T05:16:44;21.90;75.70
65707;SHT31;52423;43.512;5.220;2023-06-19T05:19:10;21.94;75.63
65707;SHT31;52423;43.512;5.220;2023-06-19T05:21:36;21.94;75.65
65707;SHT31;52423;43.512;5.220;2023-06-19T05:24:01;22.07;75.67
65707;SHT31;52423;43.512;5.220;2023-06-19T05:26:27;22.10;75.48
65707;SHT31;52423;43.512;5.220;2023-06-19T05:28:52;22.15;75.31
65707;SHT31;52423;43.512;5.220;2023-06-19T05:31:18;22.22;75.13
65707;SHT31;52423;43.512;5.220;2023-06-19T05:33:44;22.20;75.11
65707;SHT31;52423;43.512;5.220;2023-06-19T05:36:10;22.28;74.63
65707;SHT31;52423;43.512;5.220;2023-06-19T05:38:35;22.25;74.63
65707;SHT31;52423;43.512;5.220;2023-06-19T05:41:04;22.34;74.69
65707;SHT31;52423;43.512;5.220;2023-06-19T05:43:29;22.37;74.10
65707;SHT31;52423;43.512;5.220;2023-06-19T05:45:56;22.45;74.23
65707;SHT31;52423;43.512;5.220;2023-06-19T05:48:23;22.52;73.51
65707;SHT31;52423;43.512;5.220;2023-06-19T05:50:50;22.65;72.28
65707;SHT31;52423;43.512;5.220;2023-06-19T05:53:15;22.68;71.99
65707;SHT31;52423;43.512;5.220;2023-06-19T05:55:41;22.79;70.64
65707;SHT31;52423;43.512;5.220;2023-06-19T05:58:06;22.86;71.12
65707;SHT31;52423;43.512;5.220;2023-06-19T06:00:32;22.88;72.20
65707;SHT31;52423;43.512;5.220;2023-06-19T06:02:57;22.91;72.25
65707;SHT31;52423;43.512;5.220;2023-06-19T06:05:26;22.92;72.36
65707;SHT31;52423;43.512;5.220;2023-06-19T06:07:53;22.99;72.13
65707;SHT31;52423;43.512;5.220;2023-06-19T06:10:22;23.07;72.31
65707;SHT31;52423;43.512;5.220;2023-06-19T06:12:49;23.13;71.84
65707;SHT31;52423;43.512;5.220;2023-06-19T06:15:14;23.19;71.54
65707;SHT31;52423;43.512;5.220;2023-06-19T06:17:40;23.24;71.91
65707;SHT31;52423;43.512;5.220;2023-06-19T06:20:06;23.31;71.68
65707;SHT31;52423;43.512;5.220;2023-06-19T06:22:36;23.43;72.21
65707;SHT31;52423;43.512;5.220;2023-06-19T06:25:02;23.54;70.99
65707;SHT31;52423;43.512;5.220;2023-06-19T06:27:27;23.67;69.82
65707;SHT31;52423;43.512;5.220;2023-06-19T06:29:53;23.74;69.30
65707;SHT31;52423;43.512;5.220;2023-06-19T06:32:18;23.79;67.78
65707;SHT31;52423;43.512;5.220;2023-06-19T06:34:44;23.97;67.18
65707;SHT31;52423;43.512;5.220;2023-06-19T06:37:09;24.04;66.72
65707;SHT31;52423;43.512;5.220;2023-06-19T06:39:34;24.15;66.29
65707;SHT31;52423;43.512;5.220;2023-06-19T06:42:00;24.33;66.49
65707;SHT31;52423;43.512;5.220;2023-06-19T06:44:26;24.37;65.23
65707;SHT31;52423;43.512;5.220;2023-06-19T06:46:51;24.49;65.43
65707;SHT31;52423;43.512;5.220;2023-06-19T06:49:17;24.55;64.95
65707;SHT31;52423;43.512;5.220;2023-06-19T06:51:42;24.59;62.62
65707;SHT31;52423;43.512;5.220;2023-06-19T06:54:08;24.69;62.38
65707;SHT31;52423;43.512;5.220;2023-06-19T06:56:33;24.77;61.13
65707;SHT31;52423;43.512;5.220;2023-06-19T06:58:58;24.82;60.60
65707;SHT31;52423;43.512;5.220;2023-06-19T07:01:24;24.90;59.46
65707;SHT31;52423;43.512;5.220;2023-06-19T07:03:49;25.01;61.09
65707;SHT31;52423;43.512;5.220;2023-06-19T07:06:14;25.08;60.59
65707;SHT31;52423;43.512;5.220;2023-06-19T07:08:40;25.24;59.65
65707;SHT31;52423;43.512;5.220;2023-06-19T07:11:07;25.34;57.55
65707;SHT31;52423;43.512;5.220;2023-06-19T07:13:32;25.44;57.18
65707;SHT31;52423;43.512;5.220;2023-06-19T07:15:57;25.59;56.10
65707;SHT31;52423;43.512;5.220;2023-06-19T07:18:24;25.62;56.28
65707;SHT31;52423;43.512;5.220;2023-06-19T07:20:49;25.82;54.68
65707;SHT31;52423;43.512;5.220;2023-06-19T07:23:15;25.86;55.04
65707;SHT31;52423;43.512;5.220;2023-06-19T07:25:41;25.99;56.15
65707;SHT31;52423;43.512;5.220;2023-06-19T07:28:06;26.07;55.07
65707;SHT31;52423;43.512;5.220;2023-06-19T07:30:31;26.09;55.98
65707;SHT31;52423;43.512;5.220;2023-06-19T07:32:57;26.17;57.22
65707;SHT31;52423;43.512;5.220;2023-06-19T07:35:22;26.16;54.97
65707;SHT31;52423;43.512;5.220;2023-06-19T07:37:48;26.29;56.28
65707;SHT31;52423;43.512;5.220;2023-06-19T07:40:13;26.41;56.51
65707;SHT31;52423;43.512;5.220;2023-06-19T07:42:39;26.43;56.43
65707;SHT31;52423;43.512;5.220;2023-06-19T07:45:05;26.54;55.97
65707;SHT31;52423;43.512;5.220;2023-06-19T07:47:30;26.74;55.44
65707;SHT31;52423;43.512;5.220;2023-06-19T07:49:56;26.74;54.45
65707;SHT31;52423;43.512;5.220;2023-06-19T07:52:21;26.74;56.07
65707;SHT31;52423;43.512;5.220;2023-06-19T07:54:52;26.80;56.13
65707;SHT31;52423;43.512;5.220;2023-06-19T07:57:17;26.81;55.30
65707;SHT31;52423;43.512;5.220;2023-06-19T07:59:43;27.13;48.46
65707;SHT31;52423;43.512;5.220;2023-06-19T08:02:10;27.23;49.09
65707;SHT31;52423;43.512;5.220;2023-06-19T08:04:35;27.25;50.19
65707;SHT31;52423;43.512;5.220;2023-06-19T08:07:01;27.47;48.72
65707;SHT31;52423;43.512;5.220;2023-06-19T08:09:26;27.47;46.92
65707;SHT31;52423;43.512;5.220;2023-06-19T08:11:51;27.46;47.50
65707;SHT31;52423;43.512;5.220;2023-06-19T08:14:17;27.59;48.14
65707;SHT31;52423;43.512;5.220;2023-06-19T08:16:42;27.89;48.72
65707;SHT31;52423;43.512;5.220;2023-06-19T08:19:08;27.80;44.98
65707;SHT31;52423;43.512;5.220;2023-06-19T08:21:33;27.83;44.86
65707;SHT31;52423;43.512;5.220;2023-06-19T08:23:58;27.83;43.00
65707;SHT31;52423;43.512;5.220;2023-06-19T08:26:24;27.97;44.20
65707;SHT31;52423;43.512;5.220;2023-06-19T08:28:49;27.91;44.06
65707;SHT31;52423;43.512;5.220;2023-06-19T08:31:15;27.79;44.20
65707;SHT31;52423;43.512;5.220;2023-06-19T08:33:41;27.83;45.40
65707;SHT31;52423;43.512;5.220;2023-06-19T08:36:07;28.21;45.56
65707;SHT31;52423;43.512;5.220;2023-06-19T08:38:32;28.13;44.78
65707;SHT31;52423;43.512;5.220;2023-06-19T08:40:58;28.27;44.42
65707;SHT31;52423;43.512;5.220;2023-06-19T08:43:24;28.45;44.09
65707;SHT31;52423;43.512;5.220;2023-06-19T08:46:09;28.69;44.71
65707;SHT31;52423;43.512;5.220;2023-06-19T08:48:35;28.71;45.48
65707;SHT31;52423;43.512;5.220;2023-06-19T08:51:02;28.88;43.08
65707;SHT31;52423;43.512;5.220;2023-06-19T08:53:29;28.95;45.55
65707;SHT31;52423;43.512;5.220;2023-06-19T08:55:54;28.91;43.04
65707;SHT31;52423;43.512;5.220;2023-06-19T08:58:23;29.02;43.90
65707;SHT31;52423;43.512;5.220;2023-06-19T09:00:49;29.04;43.25
65707;SHT31;52423;43.512;5.220;2023-06-19T09:03:20;29.03;43.73
65707;SHT31;52423;43.512;5.220;2023-06-19T09:05:46;29.14;41.74
65707;SHT31;52423;43.512;5.220;2023-06-19T09:08:15;29.09;44.00
65707;SHT31;52423;43.512;5.220;2023-06-19T09:10:55;29.20;42.39
65707;SHT31;52423;43.512;5.220;2023-06-19T09:13:20;29.02;42.55
65707;SHT31;52423;43.512;5.220;2023-06-19T09:15:46;28.89;42.63
65707;SHT31;52423;43.512;5.220;2023-06-19T09:18:11;29.22;41.74
65707;SHT31;52423;43.512;5.220;2023-06-19T09:20:40;29.24;40.59
65707;SHT31;52423;43.512;5.220;2023-06-19T09:23:13;29.31;39.65
65707;SHT31;52423;43.512;5.220;2023-06-19T09:26:04;29.40;37.31
65707;SHT31;52423;43.512;5.220;2023-06-19T09:28:30;29.46;37.16
65707;SHT31;52423;43.512;5.220;2023-06-19T09:31:00;29.55;36.49
65707;SHT31;52423;43.512;5.220;2023-06-19T09:33:28;29.64;36.18
65707;SHT31;52423;43.512;5.220;2023-06-19T09:35:55;29.89;35.67
65707;SHT31;52423;43.512;5.220;2023-06-19T09:38:26;29.75;34.40
65707;SHT31;52423;43.512;5.220;2023-06-19T09:40:52;29.51;36.69
65707;SHT31;52423;43.512;5.220;2023-06-19T09:43:24;29.81;35.00
65707;SHT31;52423;43.512;5.220;2023-06-19T09:45:50;29.82;35.40
65707;SHT31;52423;43.512;5.220;2023-06-19T09:48:19;30.01;35.31
65707;SHT31;52423;43.512;5.220;2023-06-19T09:50:48;30.01;33.47
65707;SHT31;52423;43.512;5.220;2023-06-19T09:53:17;30.26;33.72
65707;SHT31;52423;43.512;5.220;2023-06-19T09:55:42;29.98;35.29
65707;SHT31;52423;43.512;5.220;2023-06-19T09:58:08;30.00;35.49
65707;SHT31;52423;43.512;5.220;2023-06-19T10:00:35;30.02;35.20
65707;SHT31;52423;43.512;5.220;2023-06-19T10:03:02;30.15;34.79
65707;SHT31;52423;43.512;5.220;2023-06-19T10:05:30;30.37;35.16
65707;SHT31;52423;43.512;5.220;2023-06-19T10:07:56;30.39;33.67
65707;SHT31;52423;43.512;5.220;2023-06-19T10:10:27;30.05;35.11
65707;SHT31;52423;43.512;5.220;2023-06-19T10:12:58;30.29;34.79
65707;SHT31;52423;43.512;5.220;2023-06-19T10:15:24;30.31;34.57
65707;SHT31;52423;43.512;5.220;2023-06-19T10:17:51;30.32;34.24
65707;SHT31;52423;43.512;5.220;2023-06-19T10:23:12;30.23;34.52
65707;SHT31;52423;43.512;5.220;2023-06-19T10:25:42;30.12;36.83
65707;SHT31;52423;43.512;5.220;2023-06-19T10:28:22;30.01;36.98
65707;SHT31;52423;43.512;5.220;2023-06-19T10:30:59;30.04;36.37
65707;SHT31;52423;43.512;5.220;2023-06-19T10:33:29;30.36;36.06
65707;SHT31;52423;43.512;5.220;2023-06-19T10:35:56;30.43;35.97
65707;SHT31;52423;43.512;5.220;2023-06-19T10:38:21;30.32;36.83
65707;SHT31;52423;43.512;5.220;2023-06-19T10:40:47;30.53;35.89
65707;SHT31;52423;43.512;5.220;2023-06-19T10:43:19;30.90;35.18
65707;SHT31;52423;43.512;5.220;2023-06-19T10:45:46;30.67;36.14
65707;SHT31;52423;43.512;5.220;2023-06-19T10:48:21;30.57;34.98
65707;SHT31;52423;43.512;5.220;2023-06-19T10:50:48;30.77;36.87
65707;SHT31;52423;43.512;5.220;2023-06-19T10:53:24;30.90;36.19
65707;SHT31;52423;43.512;5.220;2023-06-19T10:55:55;30.95;36.20
65707;SHT31;52423;43.512;5.220;2023-06-19T10:58:20;31.14;37.35
65707;SHT31;52423;43.512;5.220;2023-06-19T11:00:46;31.20;35.38
65707;SHT31;52423;43.512;5.220;2023-06-19T11:03:12;31.15;36.24
65707;SHT31;52423;43.512;5.220;2023-06-19T11:05:43;31.15;35.51
65707;SHT31;52423;43.512;5.220;2023-06-19T11:08:09;31.25;36.56
65707;SHT31;52423;43.512;5.220;2023-06-19T11:10:34;31.32;35.83
65707;SHT31;52423;43.512;5.220;2023-06-19T11:12:59;31.22;35.59
65707;SHT31;52423;43.512;5.220;2023-06-19T11:15:32;31.30;35.55
65707;SHT31;52423;43.512;5.220;2023-06-19T11:18:00;31.38;34.33
65707;SHT31;52423;43.512;5.220;2023-06-19T11:20:26;31.38;34.79
65707;SHT31;52423;43.512;5.220;2023-06-19T11:23:00;31.46;35.53
65707;SHT31;52423;43.512;5.220;2023-06-19T11:25:36;31.48;34.17
65707;SHT31;52423;43.512;5.220;2023-06-19T11:28:03;31.35;33.15
65707;SHT31;52423;43.512;5.220;2023-06-19T11:30:33;31.48;33.22
65707;SHT31;52423;43.512;5.220;2023-06-19T11:32:59;31.46;33.93
65707;SHT31;52423;43.512;5.220;2023-06-19T11:35:32;31.24;33.09
65707;SHT31;52423;43.512;5.220;2023-06-19T11:37:59;31.11;35.21
65707;SHT31;52423;43.512;5.220;2023-06-19T11:40:25;31.14;35.41
65707;SHT31;52423;43.512;5.220;2023-06-19T11:42:53;31.01;35.18
65707;SHT31;52423;43.512;5.220;2023-06-19T11:45:19;31.12;35.48
65707;SHT31;52423;43.512;5.220;2023-06-19T11:47:45;31.03;35.60
65707;SHT31;52423;43.512;5.220;2023-06-19T11:50:12;31.06;34.68
65707;SHT31;52423;43.512;5.220;2023-06-19T11:52:39;30.79;33.78
65707;SHT31;52423;43.512;5.220;2023-06-19T11:55:04;30.55;33.97
65707;SHT31;52423;43.512;5.220;2023-06-19T11:57:30;30.52;34.33
65707;SHT31;52423;43.512;5.220;2023-06-19T11:59:58;30.72;34.29
65707;SHT31;52423;43.512;5.220;2023-06-19T12:02:23;31.03;32.72
65707;SHT31;52423;43.512;5.220;2023-06-19T12:04:49;31.44;33.48
65707;SHT31;52423;43.512;5.220;2023-06-19T12:07:14;31.37;31.11
65707;SHT31;52423;43.512;5.220;2023-06-19T12:09:40;31.39;34.24
65707;SHT31;52423;43.512;5.220;2023-06-19T12:12:08;31.11;35.18
65707;SHT31;52423;43.512;5.220;2023-06-19T12:14:34;31.30;34.61
65707;SHT31;52423;43.512;5.220;2023-06-19T12:16:59;31.35;34.41
65707;SHT31;52423;43.512;5.220;2023-06-19T12:19:26;31.27;34.38
65707;SHT31;52423;43.512;5.220;2023-06-19T12:21:51;31.24;35.93
65707;SHT31;52423;43.512;5.220;2023-06-19T12:24:16;31.39;36.09
65707;SHT31;52423;43.512;5.220;2023-06-19T12:26:42;31.53;34.58
65707;SHT31;52423;43.512;5.220;2023-06-19T12:29:07;31.53;32.73
65707;SHT31;52423;43.512;5.220;2023-06-19T12:31:34;31.49;35.24
65707;SHT31;52423;43.512;5.220;2023-06-19T12:33:59;31.65;35.13
65707;SHT31;52423;43.512;5.220;2023-06-19T12:36:26;31.06;36.36
65707;SHT31;52423;43.512;5.220;2023-06-19T12:38:53;31.17;36.25
65707;SHT31;52423;43.512;5.220;2023-06-19T12:41:22;30.97;37.56
65707;SHT31;52423;43.512;5.220;2023-06-19T12:43:47;30.94;38.34
65707;SHT31;52423;43.512;5.220;2023-06-19T12:46:13;31.12;39.11
65707;SHT31;52423;43.512;5.220;2023-06-19T12:48:40;30.81;40.93
65707;SHT31;52423;43.512;5.220;2023-06-19T12:51:06;30.63;40.58
65707;SHT31;52423;43.512;5.220;2023-06-19T12:53:31;30.70;40.62
65707;SHT31;52423;43.512;5.220;2023-06-19T12:55:57;30.62;41.03
65707;SHT31;52423;43.512;5.220;2023-06-19T12:58:23;30.44;43.59
65707;SHT31;52423;43.512;5.220;2023-06-19T13:00:48;30.15;44.50
65707;SHT31;52423;43.512;5.220;2023-06-19T13:03:14;30.00;44.67
65707;SHT31;52423;43.512;5.220;2023-06-19T13:05:39;29.91;45.91
65707;SHT31;52423;43.512;5.220;2023-06-19T13:08:04;29.67;47.63
65707;SHT31;52423;43.512;5.220;2023-06-19T13:10:30;29.65;46.53
65707;SHT31;52423;43.512;5.220;2023-06-19T13:12:55;29.63;46.50
65707;SHT31;52423;43.512;5.220;2023-06-19T13:15:23;29.71;40.71
65707;SHT31;52423;43.512;5.220;2023-06-19T13:17:49;29.68;40.35
65707;SHT31;52423;43.512;5.220;2023-06-19T13:20:14;29.71;41.41
65707;SHT31;52423;43.512;5.220;2023-06-19T13:22:40;29.74;40.37
65707;SHT31;52423;43.512;5.220;2023-06-19T13:25:06;29.82;39.80
65707;SHT31;52423;43.512;5.220;2023-06-19T13:27:32;29.85;41.27
65707;SHT31;52423;43.512;5.220;2023-06-19T13:29:59;29.89;39.51
65707;SHT31;52423;43.512;5.220;2023-06-19T13:32:25;29.95;41.58
65707;SHT31;52423;43.512;5.220;2023-06-19T13:34:50;29.98;41.55
65707;SHT31;52423;43.512;5.220;2023-06-19T13:37:15;29.95;40.74
65707;SHT31;52423;43.512;5.220;2023-06-19T13:39:41;29.92;40.52
65707;SHT31;52423;43.512;5.220;2023-06-19T13:42:06;29.85;41.68
65707;SHT31;52423;43.512;5.220;2023-06-19T13:44:32;29.91;40.38
65707;SHT31;52423;43.512;5.220;2023-06-19T13:46:57;29.85;41.52
65707;SHT31;52423;43.512;5.220;2023-06-19T13:49:23;29.94;37.11
65707;SHT31;52423;43.512;5.220;2023-06-19T13:51:48;30.00;36.55
65707;SHT31;52423;43.512;5.220;2023-06-19T13:54:14;29.94;33.35
65707;SHT31;52423;43.512;5.220;2023-06-19T13:56:40;29.89;33.16
65707;SHT31;52423;43.512;5.220;2023-06-19T13:59:06;29.97;32.21
65707;SHT31;52423;43.512;5.220;2023-06-19T14:01:32;29.92;32.69
65707;SHT31;52423;43.512;5.220;2023-06-19T14:03:58;29.97;32.76
65707;SHT31;52423;43.512;5.220;2023-06-19T14:06:24;29.95;31.97
65707;SHT31;52423;43.512;5.220;2023-06-19T14:08:49;29.85;32.50
65707;SHT31;52423;43.512;5.220;2023-06-19T14:11:15;29.85;32.09
65707;SHT31;52423;43.512;5.220;2023-06-19T14:13:40;29.74;33.34
65707;SHT31;52423;43.512;5.220;2023-06-19T14:16:06;29.68;33.34
65707;SHT31;52423;43.512;5.220;2023-06-19T14:18:32;29.64;34.58
65707;SHT31;52423;43.512;5.220;2023-06-19T14:20:58;29.54;33.17
65707;SHT31;52423;43.512;5.220;2023-06-19T14:23:23;29.58;33.88
65707;SHT31;52423;43.512;5.220;2023-06-19T14:25:49;29.68;35.37
65707;SHT31;52423;43.512;5.220;2023-06-19T14:28:14;29.77;39.87
65707;SHT31;52423;43.512;5.220;2023-06-19T14:30:40;29.64;43.39
65707;SHT31;52423;43.512;5.220;2023-06-19T14:33:05;29.27;44.67
65707;SHT31;52423;43.512;5.220;2023-06-19T14:35:32;29.17;45.37
65707;SHT31;52423;43.512;5.220;2023-06-19T14:37:57;29.07;45.76
65707;SHT31;52423;43.512;5.220;2023-06-19T14:40:23;29.03;46.69
65707;SHT31;52423;43.512;5.220;2023-06-19T14:42:48;28.85;47.73
65707;SHT31;52423;43.512;5.220;2023-06-19T14:45:14;28.76;48.67
65707;SHT31;52423;43.512;5.220;2023-06-19T14:47:40;28.71;48.18
65707;SHT31;52423;43.512;5.220;2023-06-19T14:50:06;28.47;49.25
65707;SHT31;52423;43.512;5.220;2023-06-19T14:52:31;28.24;50.70
65707;SHT31;52423;43.512;5.220;2023-06-19T14:54:57;28.20;50.05
65707;SHT31;52423;43.512;5.220;2023-06-19T14:57:24;28.03;51.60
65707;SHT31;52423;43.512;5.220;2023-06-19T14:59:50;28.03;52.34
65707;SHT31;52423;43.512;5.220;2023-06-19T15:02:15;28.04;51.27
65707;SHT31;52423;43.512;5.220;2023-06-19T15:04:41;28.03;52.08
65707;SHT31;52423;43.512;5.220;2023-06-19T15:07:06;28.10;52.72
65707;SHT31;52423;43.512;5.220;2023-06-19T15:09:32;28.15;51.85
65707;SHT31;52423;43.512;5.220;2023-06-19T15:11:57;28.20;50.52
65707;SHT31;52423;43.512;5.220;2023-06-19T15:14:22;28.17;49.22
65707;SHT31;52423;43.512;5.220;2023-06-19T15:16:48;28.28;47.02
65707;SHT31;52423;43.512;5.220;2023-06-19T15:19:13;28.34;48.46
65707;SHT31;52423;43.512;5.220;2023-06-19T15:21:40;28.35;46.23
65707;SHT31;52423;43.512;5.220;2023-06-19T15:24:07;28.45;46.02
65707;SHT31;52423;43.512;5.220;2023-06-19T15:26:32;28.44;46.12
65707;SHT31;52423;43.512;5.220;2023-06-19T15:28:58;28.42;45.38
65707;SHT31;52423;43.512;5.220;2023-06-19T15:31:23;28.40;46.89